sensor_id;sensor_type;location;lat;lon;timestamp;P1;durP1;ratioP1;P2;durP2;ratioP2
3155;SDS011;1588;50.892;7.082;2023-04-03T00:04:30;5.33;;;2.97;;
3155;SDS011;1588;50.892;7.082;2023-04-03T00:09:34;4.40;;;2.43;;
3155;SDS011;1588;50.892;7.082;2023-04-03T00:14:36;6.50;;;2.67;;
3155;SDS011;1588;50.892;7.082;2023-04-03T00:19:39;2.40;;;2.20;;
3155;SDS011;1588;50.892;7.082;2023-04-03T00:24:42;4.93;;;2.20;;
3155;SDS011;1588;50.892;7.082;2023-04-03T00:29:45;3.57;;;2.20;;
3155;SDS011;1588;50.892;7.082;2023-04-03T00:34:47;2.60;;;1.80;;
3155;SDS011;1588;50.892;7.082;2023-04-03T00:39:50;15.33;;;2.90;;
3155;SDS011;1588;50.892;7.082;2023-04-03T00:50:36;2.87;;;1.80;;
3155;SDS011;1588;50.892;7.082;2023-04-03T00:55:43;2.90;;;2.10;;
3155;SDS011;1588;50.892;7.082;2023-04-03T01:00:48;4.30;;;2.13;;
3155;SDS011;1588;50.892;7.082;2023-04-03T01:05:57;2.83;;;2.10;;
3155;SDS011;1588;50.892;7.082;2023-04-03T01:11:04;2.63;;;2.17;;
3155;SDS011;1588;50.892;7.082;2023-04-03T01:16:07;3.03;;;2.27;;
3155;SDS011;1588;50.892;7.082;2023-04-03T01:26:48;3.93;;;2.17;;
3155;SDS011;1588;50.892;7.082;2023-04-03T01:31:52;3.70;;;2.47;;
3155;SDS011;1588;50.892;7.082;2023-04-03T01:36:58;3.40;;;2.13;;
3155;SDS011;1588;50.892;7.082;2023-04-03T01:42:01;3.60;;;2.10;;
3155;SDS011;1588;50.892;7.082;2023-04-03T01:47:07;3.40;;;2.07;;
3155;SDS011;1588;50.892;7.082;2023-04-03T01:52:11;4.10;;;2.40;;
3155;SDS011;1588;50.892;7.082;2023-04-03T01:57:13;4.10;;;1.90;;
3155;SDS011;1588;50.892;7.082;2023-04-03T02:02:17;2.40;;;2.20;;
3155;SDS011;1588;50.892;7.082;2023-04-03T02:07:21;2.80;;;2.30;;
3155;SDS011;1588;50.892;7.082;2023-04-03T02:12:24;5.50;;;2.23;;
3155;SDS011;1588;50.892;7.082;2023-04-03T02:17:27;3.33;;;2.30;;
3155;SDS011;1588;50.892;7.082;2023-04-03T02:22:29;3.60;;;2.07;;
3155;SDS011;1588;50.892;7.082;2023-04-03T02:27:32;6.07;;;2.00;;
3155;SDS011;1588;50.892;7.082;2023-04-03T02:32:36;3.70;;;2.17;;
3155;SDS011;1588;50.892;7.082;2023-04-03T02:37:43;3.57;;;2.30;;
3155;SDS011;1588;50.892;7.082;2023-04-03T02:42:45;4.70;;;2.60;;
3155;SDS011;1588;50.892;7.082;2023-04-03T02:47:49;23.47;;;2.33;;
3155;SDS011;1588;50.892;7.082;2023-04-03T02:52:56;3.30;;;2.57;;
3155;SDS011;1588;50.892;7.082;2023-04-03T02:57:58;12.40;;;4.07;;
3155;SDS011;1588;50.892;7.082;2023-04-03T03:03:02;5.20;;;2.53;;
3155;SDS011;1588;50.892;7.082;2023-04-03T03:08:05;3.00;;;2.20;;
3155;SDS011;1588;50.892;7.082;2023-04-03T03:13:08;3.17;;;2.70;;
3155;SDS011;1588;50.892;7.082;2023-04-03T03:18:13;5.30;;;2.77;;
3155;SDS011;1588;50.892;7.082;2023-04-03T03:23:15;7.60;;;3.27;;
3155;SDS011;1588;50.892;7.082;2023-04-03T03:28:18;4.20;;;2.87;;
3155;SDS011;1588;50.892;7.082;2023-04-03T03:33:21;4.97;;;3.73;;
3155;SDS011;1588;50.892;7.082;2023-04-03T03:38:24;6.83;;;3.40;;
3155;SDS011;1588;50.892;7.082;2023-04-03T03:43:26;4.47;;;3.23;;
3155;SDS011;1588;50.892;7.082;2023-04-03T03:48:31;5.90;;;3.47;;
3155;SDS011;1588;50.892;7.082;2023-04-03T03:53:34;6.93;;;3.23;;
3155;SDS011;1588;50.892;7.082;2023-04-03T03:58:36;6.97;;;3.30;;
3155;SDS011;1588;50.892;7.082;2023-04-03T04:03:39;18.07;;;4.33;;
3155;SDS011;1588;50.892;7.082;2023-04-03T04:08:42;11.27;;;3.87;;
3155;SDS011;1588;50.892;7.082;2023-04-03T04:13:44;6.93;;;3.20;;
3155;SDS011;1588;50.892;7.082;2023-04-03T04:18:48;6.47;;;2.93;;
3155;SDS011;1588;50.892;7.082;2023-04-03T04:23:50;5.87;;;3.23;;
3155;SDS011;1588;50.892;7.082;2023-04-03T04:28:52;6.13;;;3.63;;
3155;SDS011;1588;50.892;7.082;2023-04-03T04:33:59;8.97;;;3.33;;
3155;SDS011;1588;50.892;7.082;2023-04-03T04:39:01;5.40;;;3.20;;
3155;SDS011;1588;50.892;7.082;2023-04-03T04:44:03;8.97;;;3.67;;
3155;SDS011;1588;50.892;7.082;2023-04-03T04:49:09;7.80;;;2.67;;
3155;SDS011;1588;50.892;7.082;2023-04-03T04:54:12;5.80;;;2.77;;
3155;SDS011;1588;50.892;7.082;2023-04-03T04:59:14;8.60;;;3.67;;
3155;SDS011;1588;50.892;7.082;2023-04-03T05:04:19;6.50;;;2.90;;
3155;SDS011;1588;50.892;7.082;2023-04-03T05:09:25;11.27;;;3.80;;
3155;SDS011;1588;50.892;7.082;2023-04-03T05:14:27;3.07;;;2.77;;
3155;SDS011;1588;50.892;7.082;2023-04-03T05:19:33;5.17;;;3.30;;
3155;SDS011;1588;50.892;7.082;2023-04-03T05:24:38;3.80;;;2.97;;
3155;SDS011;1588;50.892;7.082;2023-04-03T05:29:41;4.67;;;2.40;;
3155;SDS011;1588;50.892;7.082;2023-04-03T05:34:48;6.17;;;2.30;;
3155;SDS011;1588;50.892;7.082;2023-04-03T05:39:50;4.50;;;2.20;;
3155;SDS011;1588;50.892;7.082;2023-04-03T05:44:53;5.90;;;2.60;;
3155;SDS011;1588;50.892;7.082;2023-04-03T05:49:57;4.97;;;2.33;;
3155;SDS011;1588;50.892;7.082;2023-04-03T05:55:01;4.10;;;2.20;;
3155;SDS011;1588;50.892;7.082;2023-04-03T06:00:08;2.80;;;1.97;;
3155;SDS011;1588;50.892;7.082;2023-04-03T06:05:17;4.37;;;2.20;;
3155;SDS011;1588;50.892;7.082;2023-04-03T06:10:19;8.63;;;2.03;;
3155;SDS011;1588;50.892;7.082;2023-04-03T06:15:22;7.57;;;2.03;;
3155;SDS011;1588;50.892;7.082;2023-04-03T06:20:31;2.60;;;1.60;;
3155;SDS011;1588;50.892;7.082;2023-04-03T06:25:33;8.13;;;2.00;;
3155;SDS011;1588;50.892;7.082;2023-04-03T06:30:35;2.10;;;1.10;;
3155;SDS011;1588;50.892;7.082;2023-04-03T06:35:40;1.67;;;1.47;;
3155;SDS011;1588;50.892;7.082;2023-04-03T06:40:43;11.93;;;2.33;;
3155;SDS011;1588;50.892;7.082;2023-04-03T06:45:49;2.93;;;1.57;;
3155;SDS011;1588;50.892;7.082;2023-04-03T06:50:55;4.13;;;2.13;;
3155;SDS011;1588;50.892;7.082;2023-04-03T06:56:09;4.00;;;2.20;;
3155;SDS011;1588;50.892;7.082;2023-04-03T07:01:27;2.50;;;1.70;;
3155;SDS011;1588;50.892;7.082;2023-04-03T07:06:35;8.63;;;1.93;;
3155;SDS011;1588;50.892;7.082;2023-04-03T07:12:14;3.97;;;2.10;;
3155;SDS011;1588;50.892;7.082;2023-04-03T07:17:51;4.83;;;1.80;;
3155;SDS011;1588;50.892;7.082;2023-04-03T07:22:46;3.70;;;1.57;;
3155;SDS011;1588;50.892;7.082;2023-04-03T07:28:05;4.63;;;1.67;;
3155;SDS011;1588;50.892;7.082;2023-04-03T07:33:41;2.27;;;1.40;;
3155;SDS011;1588;50.892;7.082;2023-04-03T07:39:16;6.07;;;1.50;;
3155;SDS011;1588;50.892;7.082;2023-04-03T08:08:24;4.63;;;1.87;;
3155;SDS011;1588;50.892;7.082;2023-04-03T08:26:11;5.53;;;1.37;;
3155;SDS011;1588;50.892;7.082;2023-04-03T08:31:16;4.33;;;1.90;;
3155;SDS011;1588;50.892;7.082;2023-04-03T08:36:22;1.40;;;1.30;;
3155;SDS011;1588;50.892;7.082;2023-04-03T08:41:29;4.73;;;1.50;;
3155;SDS011;1588;50.892;7.082;2023-04-03T08:46:40;1.60;;;0.90;;
3155;SDS011;1588;50.892;7.082;2023-04-03T08:51:54;3.07;;;1.40;;
3155;SDS011;1588;50.892;7.082;2023-04-03T08:57:03;3.83;;;1.10;;
3155;SDS011;1588;50.892;7.082;2023-04-03T09:02:18;3.70;;;1.50;;
3155;SDS011;1588;50.892;7.082;2023-04-03T09:07:31;1.20;;;1.10;;
3155;SDS011;1588;50.892;7.082;2023-04-03T09:12:41;3.43;;;1.20;;
3155;SDS011;1588;50.892;7.082;2023-04-03T09:17:49;2.20;;;1.30;;
3155;SDS011;1588;50.892;7.082;2023-04-03T09:23:00;2.80;;;1.43;;
3155;SDS011;1588;50.892;7.082;2023-04-03T09:28:07;3.63;;;1.40;;
3155;SDS011;1588;50.892;7.082;2023-04-03T09:33:10;1.63;;;1.20;;
3155;SDS011;1588;50.892;7.082;2023-04-03T09:38:23;3.30;;;1.33;;
3155;SDS011;1588;50.892;7.082;2023-04-03T09:49:00;2.10;;;1.20;;
3155;SDS011;1588;50.892;7.082;2023-04-03T09:54:30;4.70;;;1.03;;
3155;SDS011;1588;50.892;7.082;2023-04-03T09:59:44;1.63;;;0.97;;
3155;SDS011;1588;50.892;7.082;2023-04-03T10:04:59;1.00;;;0.90;;
3155;SDS011;1588;50.892;7.082;2023-04-03T10:10:14;2.23;;;1.10;;
3155;SDS011;1588;50.892;7.082;2023-04-03T10:15:41;2.60;;;1.30;;
3155;SDS011;1588;50.892;7.082;2023-04-03T10:21:02;2.00;;;1.00;;
3155;SDS011;1588;50.892;7.082;2023-04-03T10:26:11;1.40;;;1.00;;
3155;SDS011;1588;50.892;7.082;2023-04-03T10:31:31;3.03;;;1.13;;
3155;SDS011;1588;50.892;7.082;2023-04-03T10:36:44;1.60;;;0.90;;
3155;SDS011;1588;50.892;7.082;2023-04-03T10:42:14;1.47;;;1.00;;
3155;SDS011;1588;50.892;7.082;2023-04-03T10:47:27;7.63;;;1.20;;
3155;SDS011;1588;50.892;7.082;2023-04-03T10:54:16;1.80;;;1.30;;
3155;SDS011;1588;50.892;7.082;2023-04-03T10:58:51;3.90;;;0.93;;
3155;SDS011;1588;50.892;7.082;2023-04-03T11:04:03;3.10;;;1.50;;
3155;SDS011;1588;50.892;7.082;2023-04-03T11:09:13;1.30;;;1.10;;
3155;SDS011;1588;50.892;7.082;2023-04-03T11:14:27;1.77;;;0.93;;
3155;SDS011;1588;50.892;7.082;2023-04-03T11:19:35;1.23;;;0.83;;
3155;SDS011;1588;50.892;7.082;2023-04-03T11:24:50;2.00;;;0.97;;
3155;SDS011;1588;50.892;7.082;2023-04-03T11:30:05;4.10;;;1.23;;
3155;SDS011;1588;50.892;7.082;2023-04-03T11:35:46;5.53;;;0.90;;
3155;SDS011;1588;50.892;7.082;2023-04-03T11:40:51;1.30;;;0.90;;
3155;SDS011;1588;50.892;7.082;2023-04-03T11:45:59;1.80;;;0.80;;
3155;SDS011;1588;50.892;7.082;2023-04-03T11:56:44;3.57;;;1.27;;
3155;SDS011;1588;50.892;7.082;2023-04-03T12:01:48;7.50;;;1.47;;
3155;SDS011;1588;50.892;7.082;2023-04-03T12:12:36;1.20;;;1.00;;
3155;SDS011;1588;50.892;7.082;2023-04-03T12:17:45;1.07;;;0.97;;
3155;SDS011;1588;50.892;7.082;2023-04-03T12:28:29;1.73;;;1.30;;
3155;SDS011;1588;50.892;7.082;2023-04-03T12:33:47;2.17;;;1.10;;
3155;SDS011;1588;50.892;7.082;2023-04-03T12:39:21;2.13;;;1.00;;
3155;SDS011;1588;50.892;7.082;2023-04-03T12:44:44;1.67;;;1.10;;
3155;SDS011;1588;50.892;7.082;2023-04-03T12:49:59;2.43;;;1.00;;
3155;SDS011;1588;50.892;7.082;2023-04-03T12:55:16;2.00;;;1.20;;
3155;SDS011;1588;50.892;7.082;2023-04-03T13:00:27;2.97;;;1.00;;
3155;SDS011;1588;50.892;7.082;2023-04-03T13:05:33;1.87;;;1.07;;
3155;SDS011;1588;50.892;7.082;2023-04-03T13:10:44;1.43;;;1.10;;
3155;SDS011;1588;50.892;7.082;2023-04-03T13:15:53;3.57;;;1.53;;
3155;SDS011;1588;50.892;7.082;2023-04-03T13:20:59;1.43;;;1.10;;
3155;SDS011;1588;50.892;7.082;2023-04-03T13:26:12;1.77;;;1.30;;
3155;SDS011;1588;50.892;7.082;2023-04-03T13:31:20;4.23;;;1.30;;
3155;SDS011;1588;50.892;7.082;2023-04-03T13:36:27;2.50;;;1.30;;
3155;SDS011;1588;50.892;7.082;2023-04-03T13:41:35;1.50;;;1.20;;
3155;SDS011;1588;50.892;7.082;2023-04-03T13:46:39;8.33;;;1.30;;
3155;SDS011;1588;50.892;7.082;2023-04-03T13:51:41;1.40;;;1.27;;
3155;SDS011;1588;50.892;7.082;2023-04-03T13:56:51;1.23;;;0.97;;
3155;SDS011;1588;50.892;7.082;2023-04-03T14:02:09;1.50;;;1.20;;
3155;SDS011;1588;50.892;7.082;2023-04-03T14:07:17;2.03;;;1.73;;
3155;SDS011;1588;50.892;7.082;2023-04-03T14:12:26;1.93;;;1.50;;
3155;SDS011;1588;50.892;7.082;2023-04-03T14:17:30;2.57;;;1.33;;
3155;SDS011;1588;50.892;7.082;2023-04-03T14:22:32;1.37;;;1.27;;
3155;SDS011;1588;50.892;7.082;2023-04-03T14:27:37;2.70;;;1.27;;
3155;SDS011;1588;50.892;7.082;2023-04-03T14:32:41;2.50;;;1.60;;
3155;SDS011;1588;50.892;7.082;2023-04-03T14:37:44;1.70;;;1.17;;
3155;SDS011;1588;50.892;7.082;2023-04-03T14:42:49;2.27;;;1.10;;
3155;SDS011;1588;50.892;7.082;2023-04-03T14:47:55;7.73;;;1.77;;
3155;SDS011;1588;50.892;7.082;2023-04-03T14:52:59;2.80;;;1.47;;
3155;SDS011;1588;50.892;7.082;2023-04-03T14:58:02;1.53;;;1.13;;
3155;SDS011;1588;50.892;7.082;2023-04-03T15:03:06;3.60;;;1.43;;
3155;SDS011;1588;50.892;7.082;2023-04-03T15:08:15;5.10;;;1.30;;
3155;SDS011;1588;50.892;7.082;2023-04-03T15:13:22;3.60;;;1.03;;
3155;SDS011;1588;50.892;7.082;2023-04-03T15:18:27;5.40;;;1.60;;
3155;SDS011;1588;50.892;7.082;2023-04-03T15:23:36;3.00;;;1.10;;
3155;SDS011;1588;50.892;7.082;2023-04-03T15:28:40;4.00;;;1.77;;
3155;SDS011;1588;50.892;7.082;2023-04-03T15:33:44;3.47;;;1.30;;
3155;SDS011;1588;50.892;7.082;2023-04-03T15:38:46;1.97;;;1.40;;
3155;SDS011;1588;50.892;7.082;2023-04-03T15:43:53;2.60;;;1.30;;
3155;SDS011;1588;50.892;7.082;2023-04-03T15:48:56;3.37;;;1.80;;
3155;SDS011;1588;50.892;7.082;2023-04-03T15:54:01;1.47;;;0.90;;
3155;SDS011;1588;50.892;7.082;2023-04-03T15:59:05;3.57;;;1.27;;
3155;SDS011;1588;50.892;7.082;2023-04-03T16:04:07;5.53;;;1.30;;
3155;SDS011;1588;50.892;7.082;2023-04-03T16:09:11;2.17;;;1.50;;
3155;SDS011;1588;50.892;7.082;2023-04-03T16:14:15;2.93;;;1.60;;
3155;SDS011;1588;50.892;7.082;2023-04-03T16:19:23;3.13;;;2.20;;
3155;SDS011;1588;50.892;7.082;2023-04-03T16:24:26;8.10;;;1.43;;
3155;SDS011;1588;50.892;7.082;2023-04-03T16:29:30;2.30;;;1.27;;
3155;SDS011;1588;50.892;7.082;2023-04-03T16:34:32;1.70;;;1.60;;
3155;SDS011;1588;50.892;7.082;2023-04-03T16:39:35;4.10;;;1.47;;
3155;SDS011;1588;50.892;7.082;2023-04-03T16:44:42;4.03;;;1.50;;
3155;SDS011;1588;50.892;7.082;2023-04-03T16:49:47;2.40;;;1.73;;
3155;SDS011;1588;50.892;7.082;2023-04-03T16:54:55;1.43;;;1.33;;
3155;SDS011;1588;50.892;7.082;2023-04-03T17:00:04;2.03;;;1.20;;
3155;SDS011;1588;50.892;7.082;2023-04-03T17:05:07;2.97;;;1.20;;
3155;SDS011;1588;50.892;7.082;2023-04-03T17:10:10;2.60;;;1.37;;
3155;SDS011;1588;50.892;7.082;2023-04-03T17:15:16;2.57;;;2.10;;
3155;SDS011;1588;50.892;7.082;2023-04-03T17:20:23;1.53;;;1.40;;
3155;SDS011;1588;50.892;7.082;2023-04-03T17:25:25;1.70;;;1.57;;
3155;SDS011;1588;50.892;7.082;2023-04-03T17:30:29;3.10;;;1.20;;
3155;SDS011;1588;50.892;7.082;2023-04-03T17:35:31;1.63;;;1.30;;
3155;SDS011;1588;50.892;7.082;2023-04-03T17:40:33;5.70;;;1.60;;
3155;SDS011;1588;50.892;7.082;2023-04-03T17:45:37;1.50;;;1.40;;
3155;SDS011;1588;50.892;7.082;2023-04-03T17:50:40;2.00;;;1.90;;
3155;SDS011;1588;50.892;7.082;2023-04-03T17:55:44;2.63;;;1.50;;
3155;SDS011;1588;50.892;7.082;2023-04-03T18:00:48;2.83;;;1.30;;
3155;SDS011;1588;50.892;7.082;2023-04-03T18:05:50;4.67;;;1.57;;
3155;SDS011;1588;50.892;7.082;2023-04-03T18:10:53;2.50;;;1.40;;
3155;SDS011;1588;50.892;7.082;2023-04-03T18:15:57;2.60;;;1.67;;
3155;SDS011;1588;50.892;7.082;2023-04-03T18:20:59;9.90;;;1.43;;
3155;SDS011;1588;50.892;7.082;2023-04-03T18:26:02;1.53;;;1.00;;
3155;SDS011;1588;50.892;7.082;2023-04-03T18:31:07;4.87;;;1.00;;
3155;SDS011;1588;50.892;7.082;2023-04-03T18:36:14;1.10;;;0.90;;
3155;SDS011;1588;50.892;7.082;2023-04-03T18:41:19;2.40;;;1.37;;
3155;SDS011;1588;50.892;7.082;2023-04-03T18:46:24;2.40;;;1.20;;
3155;SDS011;1588;50.892;7.082;2023-04-03T18:51:27;3.43;;;1.20;;
3155;SDS011;1588;50.892;7.082;2023-04-03T18:56:30;1.97;;;1.30;;
3155;SDS011;1588;50.892;7.082;2023-04-03T19:01:34;3.40;;;3.10;;
3155;SDS011;1588;50.892;7.082;2023-04-03T19:06:37;3.60;;;1.57;;
3155;SDS011;1588;50.892;7.082;2023-04-03T19:11:42;3.90;;;1.80;;
3155;SDS011;1588;50.892;7.082;2023-04-03T19:16:46;10.00;;;2.27;;
3155;SDS011;1588;50.892;7.082;2023-04-03T19:21:51;2.20;;;1.53;;
3155;SDS011;1588;50.892;7.082;2023-04-03T19:26:57;6.40;;;2.20;;
3155;SDS011;1588;50.892;7.082;2023-04-03T19:32:01;4.40;;;1.70;;
3155;SDS011;1588;50.892;7.082;2023-04-03T19:37:09;6.50;;;1.63;;
3155;SDS011;1588;50.892;7.082;2023-04-03T19:42:11;1.70;;;1.30;;
3155;SDS011;1588;50.892;7.082;2023-04-03T19:47:18;5.17;;;1.90;;
3155;SDS011;1588;50.892;7.082;2023-04-03T19:52:21;1.67;;;1.57;;
3155;SDS011;1588;50.892;7.082;2023-04-03T19:57:24;2.20;;;1.87;;
3155;SDS011;1588;50.892;7.082;2023-04-03T20:02:29;6.43;;;2.17;;
3155;SDS011;1588;50.892;7.082;2023-04-03T20:07:31;7.17;;;1.70;;
3155;SDS011;1588;50.892;7.082;2023-04-03T20:12:34;3.43;;;1.80;;
3155;SDS011;1588;50.892;7.082;2023-04-03T20:17:42;2.63;;;2.43;;
3155;SDS011;1588;50.892;7.082;2023-04-03T20:22:49;4.10;;;2.40;;
3155;SDS011;1588;50.892;7.082;2023-04-03T20:27:53;3.87;;;1.60;;
3155;SDS011;1588;50.892;7.082;2023-04-03T20:33:16;2.83;;;1.20;;
3155;SDS011;1588;50.892;7.082;2023-04-03T20:38:19;1.97;;;1.40;;
3155;SDS011;1588;50.892;7.082;2023-04-03T20:43:23;3.90;;;1.50;;
3155;SDS011;1588;50.892;7.082;2023-04-03T20:48:30;1.57;;;1.10;;
3155;SDS011;1588;50.892;7.082;2023-04-03T20:53:34;4.57;;;1.70;;
3155;SDS011;1588;50.892;7.082;2023-04-03T20:58:44;7.20;;;2.07;;
3155;SDS011;1588;50.892;7.082;2023-04-03T21:03:54;3.47;;;1.70;;
3155;SDS011;1588;50.892;7.082;2023-04-03T21:20:26;3.93;;;1.87;;
3155;SDS011;1588;50.892;7.082;2023-04-03T21:25:42;7.10;;;1.83;;
3155;SDS011;1588;50.892;7.082;2023-04-03T21:30:44;5.70;;;1.57;;
3155;SDS011;1588;50.892;7.082;2023-04-03T21:35:47;4.60;;;1.77;;
3155;SDS011;1588;50.892;7.082;2023-04-03T21:40:58;1.70;;;1.43;;
3155;SDS011;1588;50.892;7.082;2023-04-03T21:46:00;6.80;;;1.67;;
3155;SDS011;1588;50.892;7.082;2023-04-03T21:51:06;2.60;;;1.90;;
3155;SDS011;1588;50.892;7.082;2023-04-03T21:56:11;2.53;;;1.70;;
3155;SDS011;1588;50.892;7.082;2023-04-03T22:01:14;2.57;;;2.03;;
3155;SDS011;1588;50.892;7.082;2023-04-03T22:06:17;2.83;;;1.50;;
3155;SDS011;1588;50.892;7.082;2023-04-03T22:11:21;3.77;;;1.90;;
3155;SDS011;1588;50.892;7.082;2023-04-03T22:16:27;2.30;;;1.40;;
3155;SDS011;1588;50.892;7.082;2023-04-03T22:21:29;3.43;;;1.50;;
3155;SDS011;1588;50.892;7.082;2023-04-03T22:26:34;2.50;;;1.80;;
3155;SDS011;1588;50.892;7.082;2023-04-03T22:31:37;3.70;;;2.17;;
3155;SDS011;1588;50.892;7.082;2023-04-03T22:36:41;6.67;;;2.50;;
3155;SDS011;1588;50.892;7.082;2023-04-03T22:41:44;13.80;;;3.00;;
3155;SDS011;1588;50.892;7.082;2023-04-03T22:46:47;7.77;;;2.90;;
3155;SDS011;1588;50.892;7.082;2023-04-03T22:51:49;7.20;;;3.57;;
3155;SDS011;1588;50.892;7.082;2023-04-03T22:56:53;14.40;;;4.23;;
3155;SDS011;1588;50.892;7.082;2023-04-03T23:01:55;12.50;;;4.07;;
3155;SDS011;1588;50.892;7.082;2023-04-03T23:06:58;12.60;;;3.70;;
3155;SDS011;1588;50.892;7.082;2023-04-03T23:12:02;8.03;;;3.37;;
3155;SDS011;1588;50.892;7.082;2023-04-03T23:17:04;7.00;;;3.20;;
3155;SDS011;1588;50.892;7.082;2023-04-03T23:22:06;6.17;;;2.93;;
3155;SDS011;1588;50.892;7.082;2023-04-03T23:27:12;7.60;;;2.93;;
3155;SDS011;1588;50.892;7.082;2023-04-03T23:32:15;7.47;;;2.57;;
3155;SDS011;1588;50.892;7.082;2023-04-03T23:37:17;4.07;;;2.80;;
3155;SDS011;1588;50.892;7.082;2023-04-03T23:42:21;9.00;;;3.47;;
3155;SDS011;1588;50.892;7.082;2023-04-03T23:47:24;4.20;;;2.63;;
3155;SDS011;1588;50.892;7.082;2023-04-03T23:52:26;8.43;;;2.80;;
3155;SDS011;1588;50.892;7.082;2023-04-03T23:57:31;4.40;;;2.63;;
